createdAt,value
2022-10-02T00:01:17.150Z,0.80
2022-10-02T00:03:46.927Z,0.90
2022-10-02T00:06:21.149Z,0.90
2022-10-02T00:08:52.014Z,1.00
2022-10-02T00:11:24.148Z,1.37
2022-10-02T00:13:57.407Z,1.03
2022-10-02T00:16:30.269Z,1.13
2022-10-02T00:18:58.551Z,0.90
2022-10-02T00:21:48.944Z,1.00
2022-10-02T00:24:22.042Z,1.10
2022-10-02T00:26:57.424Z,0.90
2022-10-02T00:29:38.648Z,1.00
2022-10-02T00:32:17.641Z,1.10
2022-10-02T00:35:29.922Z,1.03
2022-10-02T00:38:08.171Z,1.10
2022-10-02T00:40:57.106Z,1.20
2022-10-02T00:43:33.102Z,1.23
2022-10-02T00:46:32.457Z,1.10
2022-10-02T00:49:22.089Z,0.97
2022-10-02T00:52:02.865Z,1.27
2022-10-02T00:54:53.149Z,1.13
2022-10-02T00:57:31.556Z,1.33
2022-10-02T01:00:06.973Z,1.10
2022-10-02T01:02:53.228Z,1.17
2022-10-02T01:05:21.957Z,0.77
2022-10-02T01:07:53.826Z,1.30
2022-10-02T01:10:23.247Z,0.90
2022-10-02T01:12:51.360Z,1.20
2022-10-02T01:15:21.785Z,0.80
2022-10-02T01:17:53.064Z,0.83
2022-10-02T01:20:25.840Z,1.07
2022-10-02T01:23:00.413Z,1.03
2022-10-02T01:25:30.055Z,1.20
2022-10-02T01:27:58.281Z,1.17
2022-10-02T01:30:26.857Z,1.00
2022-10-02T01:32:58.055Z,0.87
2022-10-02T01:35:31.458Z,1.00
2022-10-02T01:38:01.012Z,1.13
2022-10-02T01:40:32.801Z,1.10
2022-10-02T01:43:03.978Z,1.07
2022-10-02T01:45:45.767Z,1.40
2022-10-02T01:48:18.321Z,1.63
2022-10-02T01:50:55.193Z,1.00
2022-10-02T01:53:31.945Z,1.00
2022-10-02T01:56:10.563Z,1.20
2022-10-02T01:58:49.979Z,1.00
2022-10-02T02:01:29.835Z,0.77
2022-10-02T02:04:04.962Z,0.97
2022-10-02T02:06:40.280Z,2.00
2022-10-02T02:09:11.954Z,1.00
2022-10-02T02:11:45.952Z,1.33
2022-10-02T02:14:17.492Z,1.00
2022-10-02T02:16:49.593Z,1.20
2022-10-02T02:19:22.900Z,1.10
2022-10-02T02:21:55.209Z,1.03
2022-10-02T02:24:26.581Z,1.37
2022-10-02T02:26:59.346Z,1.17
2022-10-02T02:29:29.225Z,1.20
2022-10-02T02:31:58.968Z,1.10
2022-10-02T02:34:32.421Z,1.40
2022-10-02T02:37:06.046Z,1.17
2022-10-02T02:39:41.798Z,1.00
2022-10-02T02:42:17.698Z,1.00
2022-10-02T02:44:49.956Z,1.50
2022-10-02T02:47:22.438Z,1.63
2022-10-02T02:49:54.050Z,1.03
2022-10-02T02:52:27.198Z,1.33
2022-10-02T02:55:03.050Z,1.20
2022-10-02T02:57:38.722Z,1.30
2022-10-02T03:00:08.521Z,1.03
2022-10-02T03:02:36.559Z,1.40
2022-10-02T03:05:06.659Z,0.90
2022-10-02T03:07:35.342Z,1.10
2022-10-02T03:10:17.972Z,1.17
2022-10-02T03:12:58.031Z,1.60
2022-10-02T03:15:32.413Z,1.20
2022-10-02T03:18:28.404Z,1.10
2022-10-02T03:21:08.939Z,1.20
2022-10-02T03:23:44.637Z,1.23
2022-10-02T03:26:18.698Z,1.13
2022-10-02T03:28:57.081Z,1.33
2022-10-02T03:31:29.528Z,1.23
2022-10-02T03:34:00.136Z,1.10
2022-10-02T03:36:28.580Z,1.50
2022-10-02T03:39:24.269Z,1.50
2022-10-02T03:41:48.624Z,1.20
2022-10-02T03:44:17.789Z,1.63
2022-10-02T03:46:45.643Z,1.20
2022-10-02T03:49:13.465Z,1.23
2022-10-02T03:51:41.264Z,1.50
2022-10-02T03:54:16.610Z,1.27
2022-10-02T03:56:52.063Z,1.47
2022-10-02T03:59:32.773Z,1.00
2022-10-02T04:02:03.254Z,1.60
2022-10-02T04:04:41.373Z,1.00
2022-10-02T04:07:15.931Z,1.40
2022-10-02T04:09:49.630Z,1.20
2022-10-02T04:12:22.481Z,1.30
2022-10-02T04:14:58.027Z,1.30
2022-10-02T04:17:32.846Z,2.03
2022-10-02T04:20:08.265Z,1.30
2022-10-02T04:22:39.788Z,1.20
2022-10-02T04:25:13.976Z,1.57
2022-10-02T04:27:44.377Z,1.50
2022-10-02T04:30:16.689Z,1.20
2022-10-02T04:32:44.505Z,1.30
2022-10-02T04:35:15.995Z,1.23
2022-10-02T04:37:57.590Z,1.20
2022-10-02T04:40:40.363Z,1.17
2022-10-02T04:43:20.562Z,1.50
2022-10-02T04:46:08.442Z,1.13
2022-10-02T04:49:10.008Z,1.37
2022-10-02T04:51:56.261Z,1.30
2022-10-02T04:54:47.820Z,1.77
2022-10-02T04:57:40.701Z,1.47
2022-10-02T05:00:12.196Z,1.13
2022-10-02T05:03:00.333Z,1.53
2022-10-02T05:05:39.138Z,1.00
2022-10-02T05:08:27.881Z,1.23
2022-10-02T05:11:12.802Z,1.37
2022-10-02T05:13:53.622Z,1.43
2022-10-02T05:16:33.721Z,1.60
2022-10-02T05:19:24.481Z,1.30
2022-10-02T05:22:17.827Z,1.30
2022-10-02T05:24:51.837Z,1.33
2022-10-02T05:27:47.272Z,1.20
2022-10-02T05:30:17.041Z,1.07
2022-10-02T05:33:08.265Z,1.13
2022-10-02T05:35:51.872Z,1.70
2022-10-02T05:38:31.131Z,1.50
2022-10-02T05:41:04.719Z,1.43
2022-10-02T05:43:41.297Z,1.17
2022-10-02T05:46:15.299Z,1.50
2022-10-02T05:48:45.823Z,1.07
2022-10-02T05:51:22.650Z,1.50
2022-10-02T05:53:57.357Z,1.00
2022-10-02T05:56:30.910Z,1.50
2022-10-02T05:59:05.460Z,1.27
2022-10-02T06:01:38.625Z,1.20
2022-10-02T06:04:12.297Z,1.73
2022-10-02T06:06:45.708Z,1.20
2022-10-02T06:09:20.293Z,1.30
2022-10-02T06:11:52.578Z,1.20
2022-10-02T06:14:26.784Z,1.40
2022-10-02T06:16:58.786Z,1.50
2022-10-02T06:19:31.865Z,1.03
2022-10-02T06:22:07.163Z,1.27
2022-10-02T06:24:40.101Z,1.40
2022-10-02T06:27:14.128Z,1.20
2022-10-02T06:29:46.717Z,1.43
2022-10-02T06:32:23.399Z,1.47
2022-10-02T06:34:51.661Z,1.47
2022-10-02T06:37:38.812Z,1.17
2022-10-02T06:40:24.365Z,1.33
2022-10-02T06:43:00.885Z,1.10
2022-10-02T06:45:37.086Z,1.00
2022-10-02T06:48:25.357Z,1.90
2022-10-02T06:51:01.197Z,1.50
2022-10-02T06:53:49.170Z,1.10
2022-10-02T06:56:32.525Z,1.30
2022-10-02T06:59:12.084Z,1.23
2022-10-02T07:01:56.395Z,1.40
2022-10-02T07:04:43.954Z,1.40
2022-10-02T07:07:27.541Z,1.50
2022-10-02T07:10:07.569Z,1.20
2022-10-02T07:12:51.059Z,1.37
2022-10-02T07:15:30.902Z,1.27
2022-10-02T07:18:12.197Z,1.40
2022-10-02T07:20:50.419Z,1.43
2022-10-02T07:23:38.033Z,1.30
2022-10-02T07:26:36.991Z,1.20
2022-10-02T07:29:18.589Z,1.73
2022-10-02T07:31:57.931Z,1.17
2022-10-02T07:34:37.938Z,1.50
2022-10-02T07:37:17.050Z,2.97
2022-10-02T07:40:03.045Z,1.70
2022-10-02T07:42:53.304Z,1.33
2022-10-02T07:45:37.468Z,1.40
2022-10-02T07:48:38.298Z,1.50
2022-10-02T07:51:48.531Z,1.83
2022-10-02T07:54:46.107Z,1.20
2022-10-02T07:57:28.426Z,1.40
2022-10-02T08:00:06.499Z,1.40
2022-10-02T08:02:40.006Z,1.80
2022-10-02T08:05:18.087Z,1.70
2022-10-02T08:07:50.884Z,1.57
2022-10-02T08:10:25.642Z,1.43
2022-10-02T08:13:01.662Z,1.60
2022-10-02T08:15:34.102Z,1.30
2022-10-02T08:18:33.088Z,1.90
2022-10-02T08:20:57.885Z,2.00
2022-10-02T08:23:31.280Z,1.70
2022-10-02T08:26:10.720Z,1.43
2022-10-02T08:28:44.714Z,1.80
2022-10-02T08:31:15.868Z,1.50
2022-10-02T08:33:44.357Z,1.33
2022-10-02T08:36:44.174Z,1.40
2022-10-02T08:39:51.372Z,1.30
2022-10-02T08:43:04.090Z,1.27
2022-10-02T08:46:08.209Z,1.60
2022-10-02T08:49:29.545Z,1.50
2022-10-02T08:52:21.364Z,1.70
2022-10-02T08:55:34.012Z,1.37
2022-10-02T08:58:35.424Z,1.53
2022-10-02T09:01:18.860Z,1.23
2022-10-02T09:04:31.197Z,1.83
2022-10-02T09:07:42.113Z,1.40
2022-10-02T09:10:49.132Z,1.53
2022-10-02T09:14:10.217Z,2.00
2022-10-02T09:16:50.309Z,1.20
2022-10-02T09:19:40.773Z,1.30
2022-10-02T09:22:25.640Z,1.70
2022-10-02T09:25:08.334Z,1.30
2022-10-02T09:28:03.714Z,1.27
2022-10-02T09:31:03.712Z,1.10
2022-10-02T09:34:20.043Z,0.97
2022-10-02T09:37:28.376Z,1.00
2022-10-02T09:40:47.427Z,1.20
2022-10-02T09:43:51.182Z,1.00
2022-10-02T09:46:51.125Z,1.33
2022-10-02T09:49:57.322Z,1.37
2022-10-02T09:52:47.365Z,1.30
2022-10-02T09:55:50.042Z,1.37
2022-10-02T09:59:00.749Z,1.13
2022-10-02T10:01:45.734Z,1.30
2022-10-02T10:05:05.996Z,1.17
2022-10-02T10:08:08.586Z,1.10
2022-10-02T10:11:13.514Z,1.10
2022-10-02T10:14:26.080Z,1.30
2022-10-02T10:17:45.555Z,1.30
2022-10-02T10:20:44.622Z,1.20
2022-10-02T10:23:37.207Z,1.23
2022-10-02T10:26:27.902Z,1.57
2022-10-02T10:29:31.841Z,1.20
2022-10-02T10:32:35.624Z,1.50
2022-10-02T10:35:49.817Z,1.20
2022-10-02T10:38:42.933Z,1.00
2022-10-02T10:41:39.237Z,1.07
2022-10-02T10:44:49.735Z,1.30
2022-10-02T10:47:39.625Z,1.10
2022-10-02T10:50:25.432Z,1.00
2022-10-02T10:53:14.818Z,1.20
2022-10-02T10:56:03.661Z,1.03
2022-10-02T10:58:47.801Z,0.80
2022-10-02T11:01:19.717Z,0.77
2022-10-02T11:04:24.700Z,0.97
2022-10-02T11:07:16.295Z,0.90
2022-10-02T11:10:17.380Z,1.10
2022-10-02T11:13:16.061Z,0.87
2022-10-02T11:16:13.794Z,0.87
2022-10-02T11:19:23.202Z,1.03
2022-10-02T11:22:13.234Z,1.00
2022-10-02T11:25:19.611Z,0.90
2022-10-02T11:28:35.525Z,0.80
2022-10-02T11:31:25.684Z,0.90
2022-10-02T11:34:13.406Z,0.90
2022-10-02T11:36:52.756Z,0.70
2022-10-02T11:39:43.793Z,0.67
2022-10-02T11:42:35.568Z,0.80
2022-10-02T11:45:29.028Z,0.60
2022-10-02T11:48:18.664Z,0.70
2022-10-02T11:51:14.725Z,0.60
2022-10-02T11:54:05.224Z,0.50
2022-10-02T11:57:18.057Z,0.50
2022-10-02T12:00:05.774Z,0.53
2022-10-02T12:02:38.954Z,0.60
2022-10-02T12:05:27.623Z,0.70
2022-10-02T12:08:03.466Z,0.80
2022-10-02T12:10:41.376Z,0.70
2022-10-02T12:13:34.358Z,0.70
2022-10-02T12:16:13.049Z,0.60
2022-10-02T12:18:53.338Z,0.50
2022-10-02T12:21:54.797Z,0.80
2022-10-02T12:24:55.139Z,0.90
2022-10-02T12:27:38.125Z,0.40
2022-10-02T12:30:13.372Z,0.50
2022-10-02T12:33:01.746Z,0.63
2022-10-02T12:36:05.252Z,0.50
2022-10-02T12:38:52.231Z,1.17
2022-10-02T12:41:36.802Z,0.63
2022-10-02T12:44:27.271Z,0.57
2022-10-02T12:47:30.341Z,0.80
2022-10-02T12:50:16.276Z,0.83
2022-10-02T12:53:37.062Z,0.50
2022-10-02T12:56:41.476Z,0.63
2022-10-02T12:59:18.933Z,0.70
2022-10-02T13:02:29.084Z,0.60
2022-10-02T13:05:43.532Z,0.40
2022-10-02T13:08:41.317Z,0.60
2022-10-02T13:11:19.921Z,0.50
2022-10-02T13:14:09.513Z,0.73
2022-10-02T13:16:59.912Z,0.80
2022-10-02T13:19:32.973Z,0.60
2022-10-02T13:22:06.806Z,0.70
2022-10-02T13:24:47.460Z,0.70
2022-10-02T13:27:23.223Z,0.80
2022-10-02T13:30:03.622Z,0.70
2022-10-02T13:32:52.152Z,0.60
2022-10-02T13:35:35.629Z,0.50
2022-10-02T13:38:18.022Z,0.60
2022-10-02T13:40:54.001Z,0.60
2022-10-02T13:43:49.900Z,0.60
2022-10-02T13:46:29.557Z,0.60
2022-10-02T13:49:07.992Z,0.50
2022-10-02T13:51:46.062Z,0.83
2022-10-02T13:54:39.424Z,0.60
2022-10-02T13:57:21.973Z,0.60
2022-10-02T14:00:03.451Z,0.70
2022-10-02T14:02:54.341Z,0.70
2022-10-02T14:05:37.942Z,0.70
2022-10-02T14:08:24.880Z,0.60
2022-10-02T14:11:04.544Z,0.63
2022-10-02T14:13:48.078Z,0.70
2022-10-02T14:16:33.266Z,0.70
2022-10-02T14:19:24.282Z,1.00
2022-10-02T14:22:06.041Z,0.73
2022-10-02T14:25:04.031Z,1.03
2022-10-02T14:27:58.136Z,0.83
2022-10-02T14:30:34.479Z,1.00
2022-10-02T14:33:16.625Z,1.30
2022-10-02T14:35:52.862Z,3.33
2022-10-02T14:38:36.459Z,1.73
2022-10-02T14:41:18.480Z,1.70
2022-10-02T14:44:07.574Z,1.10
2022-10-02T14:47:00.961Z,2.50
2022-10-02T14:49:40.952Z,2.63
2022-10-02T14:52:28.593Z,3.53
2022-10-02T14:55:27.277Z,3.47
2022-10-02T14:58:18.900Z,11.40
2022-10-02T15:01:03.229Z,6.00
2022-10-02T15:03:50.026Z,4.00
2022-10-02T15:06:41.253Z,3.10
2022-10-02T15:09:17.324Z,2.90
2022-10-02T15:12:00.009Z,2.70
2022-10-02T15:14:37.100Z,3.77
2022-10-02T15:17:28.801Z,2.73
2022-10-02T15:20:06.062Z,2.50
2022-10-02T15:22:40.229Z,3.00
2022-10-02T15:25:18.145Z,2.80
2022-10-02T15:28:08.045Z,3.23
2022-10-02T15:30:51.433Z,3.23
2022-10-02T15:33:27.909Z,2.20
2022-10-02T15:36:23.688Z,2.30
2022-10-02T15:39:26.385Z,1.37
2022-10-02T15:42:05.365Z,1.87
2022-10-02T15:45:06.934Z,2.60
2022-10-02T15:48:12.438Z,2.23
2022-10-02T15:50:49.590Z,4.03
2022-10-02T15:53:31.126Z,1.80
2022-10-02T15:56:15.057Z,2.17
2022-10-02T15:59:02.848Z,1.87
2022-10-02T16:01:44.528Z,1.30
2022-10-02T16:04:25.042Z,2.50
2022-10-02T16:07:24.840Z,4.40
2022-10-02T16:10:04.019Z,5.40
2022-10-02T16:12:51.032Z,2.70
2022-10-02T16:15:24.594Z,3.03
2022-10-02T16:18:13.717Z,2.90
2022-10-02T16:21:17.218Z,2.80
2022-10-02T16:24:02.208Z,3.50
2022-10-02T16:26:43.053Z,2.97
2022-10-02T16:29:25.269Z,2.90
2022-10-02T16:32:05.552Z,3.00
2022-10-02T16:34:49.055Z,4.03
2022-10-02T16:37:25.329Z,2.73
2022-10-02T16:40:01.460Z,2.60
2022-10-02T16:42:44.184Z,2.00
2022-10-02T16:45:52.774Z,1.80
2022-10-02T16:48:24.287Z,1.83
2022-10-02T16:51:15.324Z,2.20
2022-10-02T16:53:50.909Z,2.17
2022-10-02T16:56:24.514Z,1.60
2022-10-02T16:59:01.705Z,1.50
2022-10-02T17:01:35.332Z,1.40
2022-10-02T17:04:19.778Z,1.20
2022-10-02T17:06:53.871Z,1.17
2022-10-02T17:09:31.746Z,1.67
2022-10-02T17:12:07.908Z,2.10
2022-10-02T17:14:42.521Z,3.83
2022-10-02T17:17:17.385Z,4.93
2022-10-02T17:19:49.133Z,4.53
2022-10-02T17:22:29.921Z,3.37
2022-10-02T17:25:07.231Z,2.90
2022-10-02T17:27:48.005Z,1.40
2022-10-02T17:30:21.064Z,6.67
2022-10-02T17:32:56.578Z,6.23
2022-10-02T17:35:40.074Z,9.20
2022-10-02T17:38:27.194Z,3.93
2022-10-02T17:41:04.707Z,2.70
2022-10-02T17:43:38.956Z,3.70
2022-10-02T17:46:32.184Z,2.90
2022-10-02T17:49:08.033Z,2.20
2022-10-02T17:51:52.910Z,1.93
2022-10-02T17:54:55.906Z,1.80
2022-10-02T17:57:36.144Z,2.10
2022-10-02T18:00:12.472Z,1.67
2022-10-02T18:03:10.049Z,3.73
2022-10-02T18:05:51.769Z,2.40
2022-10-02T18:08:35.780Z,3.03
2022-10-02T18:11:09.690Z,1.37
2022-10-02T18:13:56.005Z,4.50
2022-10-02T18:16:37.129Z,3.40
2022-10-02T18:19:23.694Z,1.63
2022-10-02T18:22:08.321Z,1.00
2022-10-02T18:24:59.141Z,0.80
2022-10-02T18:28:05.051Z,0.77
2022-10-02T18:30:43.298Z,1.90
2022-10-02T18:33:40.733Z,1.90
2022-10-02T18:36:19.272Z,0.60
2022-10-02T18:38:58.597Z,1.20
2022-10-02T18:41:43.625Z,1.70
2022-10-02T18:44:29.408Z,6.37
2022-10-02T18:47:05.420Z,2.20
2022-10-02T18:49:46.931Z,1.83
2022-10-02T18:52:39.692Z,2.73
2022-10-02T18:55:25.829Z,3.70
2022-10-02T18:58:07.488Z,2.60
2022-10-02T19:01:01.890Z,2.73
2022-10-02T19:03:37.849Z,2.07
2022-10-02T19:06:13.485Z,1.80
2022-10-02T19:09:14.037Z,2.13
2022-10-02T19:11:47.152Z,5.50
2022-10-02T19:14:16.812Z,6.17
2022-10-02T19:16:59.930Z,3.90
2022-10-02T19:19:29.085Z,1.20
2022-10-02T19:22:01.101Z,3.37
2022-10-02T19:24:32.161Z,2.30
2022-10-02T19:27:04.638Z,1.50
2022-10-02T19:29:36.780Z,5.70
2022-10-02T19:32:18.414Z,3.47
2022-10-02T19:34:51.947Z,1.53
2022-10-02T19:37:22.989Z,1.30
2022-10-02T19:39:54.244Z,2.07
2022-10-02T19:42:25.639Z,2.10
2022-10-02T19:44:57.132Z,1.97
2022-10-02T19:47:31.658Z,2.40
2022-10-02T19:50:01.992Z,2.80
2022-10-02T19:52:35.845Z,2.10
2022-10-02T19:55:16.329Z,2.30
2022-10-02T19:57:46.033Z,2.30
2022-10-02T20:00:18.460Z,1.97
2022-10-02T20:02:49.448Z,1.30
2022-10-02T20:05:22.854Z,1.50
2022-10-02T20:07:53.858Z,1.37
2022-10-02T20:10:27.122Z,2.00
2022-10-02T20:13:00.319Z,2.70
2022-10-02T20:15:49.192Z,1.50
2022-10-02T20:18:21.401Z,1.00
2022-10-02T20:20:50.837Z,0.70
2022-10-02T20:23:22.727Z,0.80
2022-10-02T20:25:56.345Z,1.10
2022-10-02T20:28:31.442Z,0.97
2022-10-02T20:31:04.728Z,0.90
2022-10-02T20:33:38.328Z,1.10
2022-10-02T20:36:14.020Z,0.97
2022-10-02T20:38:48.860Z,0.93
2022-10-02T20:41:22.272Z,1.00
2022-10-02T20:43:55.026Z,4.00
2022-10-02T20:46:46.140Z,2.30
2022-10-02T20:49:47.753Z,1.13
2022-10-02T20:52:42.825Z,1.00
2022-10-02T20:55:19.010Z,1.30
2022-10-02T20:58:29.649Z,1.53
2022-10-02T21:01:16.927Z,1.07
2022-10-02T21:04:22.283Z,1.60
2022-10-02T21:07:09.241Z,1.50
2022-10-02T21:10:11.365Z,3.20
2022-10-02T21:13:02.751Z,4.70
2022-10-02T21:15:53.232Z,2.83
2022-10-02T21:18:50.810Z,3.00
2022-10-02T21:21:57.056Z,8.97
2022-10-02T21:24:49.480Z,6.30
2022-10-02T21:27:44.169Z,5.27
2022-10-02T21:30:17.082Z,3.30
2022-10-02T21:33:04.789Z,2.00
2022-10-02T21:35:41.030Z,4.20
2022-10-02T21:38:54.996Z,4.40
2022-10-02T21:42:00.589Z,3.80
2022-10-02T21:45:10.181Z,6.90
2022-10-02T21:47:52.726Z,5.70
2022-10-02T21:50:50.093Z,5.43
2022-10-02T21:53:51.779Z,4.33
2022-10-02T21:56:59.108Z,2.80
2022-10-02T21:59:55.710Z,0.97
2022-10-02T22:03:01.015Z,0.90
2022-10-02T22:05:54.150Z,2.80
2022-10-02T22:08:29.145Z,1.90
2022-10-02T22:11:04.905Z,1.77
2022-10-02T22:13:36.719Z,1.37
2022-10-02T22:16:18.593Z,1.47
2022-10-02T22:18:52.105Z,1.00
2022-10-02T22:21:41.301Z,1.27
2022-10-02T22:24:20.445Z,1.40
2022-10-02T22:27:07.100Z,1.00
2022-10-02T22:29:44.832Z,1.43
2022-10-02T22:33:05.793Z,1.30
2022-10-02T22:35:59.595Z,1.00
2022-10-02T22:38:33.929Z,0.90
2022-10-02T22:41:07.733Z,1.00
2022-10-02T22:43:45.628Z,0.80
2022-10-02T22:46:25.536Z,1.10
2022-10-02T22:49:02.039Z,1.00
2022-10-02T22:51:38.930Z,0.60
2022-10-02T22:54:19.092Z,0.80
2022-10-02T22:56:54.457Z,0.70
2022-10-02T22:59:29.382Z,0.70
2022-10-02T23:02:05.633Z,0.77
2022-10-02T23:04:40.860Z,0.90
2022-10-02T23:07:16.481Z,0.80
2022-10-02T23:09:51.558Z,0.90
2022-10-02T23:12:28.116Z,0.80
2022-10-02T23:15:25.466Z,0.70
2022-10-02T23:17:59.151Z,0.90
2022-10-02T23:20:34.906Z,1.00
2022-10-02T23:23:13.641Z,1.03
2022-10-02T23:25:47.086Z,1.13
2022-10-02T23:28:19.316Z,0.80
2022-10-02T23:30:51.559Z,0.93
2022-10-02T23:33:26.604Z,0.80
2022-10-02T23:36:02.164Z,0.90
2022-10-02T23:38:38.468Z,1.27
2022-10-02T23:41:30.046Z,1.57
2022-10-02T23:44:09.770Z,1.23
2022-10-02T23:46:48.393Z,1.03
2022-10-02T23:49:18.608Z,1.07
2022-10-02T23:52:02.937Z,1.00
2022-10-02T23:54:48.874Z,1.20
2022-10-02T23:57:35.820Z,1.20
